sensor_id;sensor_type;location;lat;lon;timestamp;P1;durP1;ratioP1;P2;durP2;ratioP2
74059;SDS011;62414;53.436;8.828;2023-08-12T00:01:33;24.87;;;13.93;;
74059;SDS011;62414;53.436;8.828;2023-08-12T00:03:59;25.70;;;13.77;;
74059;SDS011;62414;53.436;8.828;2023-08-12T00:06:25;24.40;;;13.88;;
74059;SDS011;62414;53.436;8.828;2023-08-12T00:08:50;27.00;;;14.13;;
74059;SDS011;62414;53.436;8.828;2023-08-12T00:11:16;24.13;;;14.33;;
74059;SDS011;62414;53.436;8.828;2023-08-12T00:13:41;23.47;;;13.90;;
74059;SDS011;62414;53.436;8.828;2023-08-12T00:16:07;27.60;;;15.33;;
74059;SDS011;62414;53.436;8.828;2023-08-12T00:18:32;27.30;;;15.30;;
74059;SDS011;62414;53.436;8.828;2023-08-12T00:20:59;30.20;;;15.95;;
74059;SDS011;62414;53.436;8.828;2023-08-12T00:23:24;24.75;;;14.32;;
74059;SDS011;62414;53.436;8.828;2023-08-12T00:25:50;26.47;;;14.17;;
74059;SDS011;62414;53.436;8.828;2023-08-12T00:28:15;26.43;;;15.17;;
74059;SDS011;62414;53.436;8.828;2023-08-12T00:30:41;25.00;;;15.13;;
74059;SDS011;62414;53.436;8.828;2023-08-12T00:33:07;28.48;;;15.98;;
74059;SDS011;62414;53.436;8.828;2023-08-12T00:35:34;28.95;;;15.40;;
74059;SDS011;62414;53.436;8.828;2023-08-12T00:38:02;25.90;;;13.23;;
74059;SDS011;62414;53.436;8.828;2023-08-12T00:40:27;25.27;;;13.30;;
74059;SDS011;62414;53.436;8.828;2023-08-12T00:42:53;25.73;;;13.77;;
74059;SDS011;62414;53.436;8.828;2023-08-12T00:45:18;24.33;;;13.93;;
74059;SDS011;62414;53.436;8.828;2023-08-12T00:47:44;26.67;;;14.15;;
74059;SDS011;62414;53.436;8.828;2023-08-12T00:50:10;23.93;;;13.50;;
74059;SDS011;62414;53.436;8.828;2023-08-12T00:52:37;27.67;;;14.45;;
74059;SDS011;62414;53.436;8.828;2023-08-12T00:55:04;25.33;;;13.40;;
74059;SDS011;62414;53.436;8.828;2023-08-12T00:57:30;26.75;;;13.40;;
74059;SDS011;62414;53.436;8.828;2023-08-12T00:59:56;25.03;;;13.60;;
74059;SDS011;62414;53.436;8.828;2023-08-12T01:02:21;24.73;;;13.40;;
74059;SDS011;62414;53.436;8.828;2023-08-12T01:04:47;23.10;;;13.83;;
74059;SDS011;62414;53.436;8.828;2023-08-12T01:07:13;27.73;;;16.75;;
74059;SDS011;62414;53.436;8.828;2023-08-12T01:09:39;28.13;;;15.57;;
74059;SDS011;62414;53.436;8.828;2023-08-12T01:12:06;27.13;;;16.43;;
74059;SDS011;62414;53.436;8.828;2023-08-12T01:14:35;28.90;;;16.25;;
74059;SDS011;62414;53.436;8.828;2023-08-12T01:17:05;25.33;;;14.77;;
74059;SDS011;62414;53.436;8.828;2023-08-12T01:19:34;27.90;;;15.80;;
74059;SDS011;62414;53.436;8.828;2023-08-12T01:22:00;27.40;;;15.70;;
74059;SDS011;62414;53.436;8.828;2023-08-12T01:24:27;24.45;;;15.85;;
74059;SDS011;62414;53.436;8.828;2023-08-12T01:26:59;26.92;;;16.35;;
74059;SDS011;62414;53.436;8.828;2023-08-12T01:29:24;28.13;;;16.80;;
74059;SDS011;62414;53.436;8.828;2023-08-12T01:31:51;30.80;;;17.83;;
74059;SDS011;62414;53.436;8.828;2023-08-12T01:34:20;28.27;;;16.73;;
74059;SDS011;62414;53.436;8.828;2023-08-12T01:36:51;29.10;;;16.17;;
74059;SDS011;62414;53.436;8.828;2023-08-12T01:39:20;27.63;;;15.35;;
74059;SDS011;62414;53.436;8.828;2023-08-12T01:41:48;25.25;;;14.85;;
74059;SDS011;62414;53.436;8.828;2023-08-12T01:44:14;23.60;;;13.57;;
74059;SDS011;62414;53.436;8.828;2023-08-12T01:46:42;21.53;;;12.83;;
74059;SDS011;62414;53.436;8.828;2023-08-12T01:49:08;27.67;;;13.10;;
74059;SDS011;62414;53.436;8.828;2023-08-12T01:51:33;22.13;;;12.37;;
74059;SDS011;62414;53.436;8.828;2023-08-12T01:53:58;23.43;;;12.77;;
74059;SDS011;62414;53.436;8.828;2023-08-12T01:56:24;23.77;;;11.80;;
74059;SDS011;62414;53.436;8.828;2023-08-12T01:58:51;18.93;;;11.73;;
74059;SDS011;62414;53.436;8.828;2023-08-12T02:01:16;20.33;;;11.10;;
74059;SDS011;62414;53.436;8.828;2023-08-12T02:03:43;23.95;;;12.70;;
74059;SDS011;62414;53.436;8.828;2023-08-12T02:06:09;23.00;;;13.85;;
74059;SDS011;62414;53.436;8.828;2023-08-12T02:08:34;27.33;;;16.30;;
74059;SDS011;62414;53.436;8.828;2023-08-12T02:11:00;31.03;;;18.10;;
74059;SDS011;62414;53.436;8.828;2023-08-12T02:13:25;36.17;;;19.73;;
74059;SDS011;62414;53.436;8.828;2023-08-12T02:15:52;36.00;;;20.50;;
74059;SDS011;62414;53.436;8.828;2023-08-12T02:18:17;35.70;;;20.25;;
74059;SDS011;62414;53.436;8.828;2023-08-12T02:20:43;34.63;;;20.63;;
74059;SDS011;62414;53.436;8.828;2023-08-12T02:23:08;34.00;;;19.73;;
74059;SDS011;62414;53.436;8.828;2023-08-12T02:25:34;32.53;;;19.80;;
74059;SDS011;62414;53.436;8.828;2023-08-12T02:27:59;38.97;;;21.80;;
74059;SDS011;62414;53.436;8.828;2023-08-12T02:30:25;35.57;;;20.90;;
74059;SDS011;62414;53.436;8.828;2023-08-12T02:32:54;38.85;;;21.65;;
74059;SDS011;62414;53.436;8.828;2023-08-12T02:35:20;37.05;;;21.40;;
74059;SDS011;62414;53.436;8.828;2023-08-12T02:37:47;40.38;;;22.83;;
74059;SDS011;62414;53.436;8.828;2023-08-12T02:40:12;40.20;;;24.13;;
74059;SDS011;62414;53.436;8.828;2023-08-12T02:42:38;44.47;;;24.33;;
74059;SDS011;62414;53.436;8.828;2023-08-12T02:45:04;49.97;;;25.87;;
74059;SDS011;62414;53.436;8.828;2023-08-12T02:47:30;47.08;;;26.70;;
74059;SDS011;62414;53.436;8.828;2023-08-12T02:49:57;48.70;;;27.70;;
74059;SDS011;62414;53.436;8.828;2023-08-12T02:52:22;54.53;;;30.17;;
74059;SDS011;62414;53.436;8.828;2023-08-12T02:54:48;54.43;;;28.77;;
74059;SDS011;62414;53.436;8.828;2023-08-12T02:57:13;57.13;;;28.92;;
74059;SDS011;62414;53.436;8.828;2023-08-12T02:59:39;58.80;;;29.57;;
74059;SDS011;62414;53.436;8.828;2023-08-12T03:02:04;54.07;;;29.50;;
74059;SDS011;62414;53.436;8.828;2023-08-12T03:04:30;65.07;;;31.73;;
74059;SDS011;62414;53.436;8.828;2023-08-12T03:06:57;63.53;;;31.77;;
74059;SDS011;62414;53.436;8.828;2023-08-12T03:09:22;58.13;;;32.25;;
74059;SDS011;62414;53.436;8.828;2023-08-12T03:11:48;59.13;;;32.40;;
74059;SDS011;62414;53.436;8.828;2023-08-12T03:14:14;63.00;;;34.03;;
74059;SDS011;62414;53.436;8.828;2023-08-12T03:16:39;57.80;;;32.08;;
74059;SDS011;62414;53.436;8.828;2023-08-12T03:19:05;63.37;;;32.07;;
74059;SDS011;62414;53.436;8.828;2023-08-12T03:21:32;56.63;;;32.58;;
74059;SDS011;62414;53.436;8.828;2023-08-12T03:23:59;55.17;;;30.92;;
74059;SDS011;62414;53.436;8.828;2023-08-12T03:26:25;56.77;;;30.67;;
74059;SDS011;62414;53.436;8.828;2023-08-12T03:28:52;54.17;;;29.77;;
74059;SDS011;62414;53.436;8.828;2023-08-12T03:31:18;53.67;;;29.42;;
74059;SDS011;62414;53.436;8.828;2023-08-12T03:33:44;55.93;;;29.47;;
74059;SDS011;62414;53.436;8.828;2023-08-12T03:36:10;52.33;;;28.85;;
74059;SDS011;62414;53.436;8.828;2023-08-12T03:38:36;58.15;;;30.33;;
74059;SDS011;62414;53.436;8.828;2023-08-12T03:41:03;52.70;;;29.93;;
74059;SDS011;62414;53.436;8.828;2023-08-12T03:43:31;58.78;;;30.02;;
74059;SDS011;62414;53.436;8.828;2023-08-12T03:45:56;51.72;;;30.00;;
74059;SDS011;62414;53.436;8.828;2023-08-12T03:48:22;51.90;;;29.53;;
74059;SDS011;62414;53.436;8.828;2023-08-12T03:50:47;53.73;;;29.37;;
74059;SDS011;62414;53.436;8.828;2023-08-12T03:53:13;50.97;;;28.65;;
74059;SDS011;62414;53.436;8.828;2023-08-12T03:55:39;57.60;;;30.70;;
74059;SDS011;62414;53.436;8.828;2023-08-12T03:58:07;55.00;;;29.20;;
74059;SDS011;62414;53.436;8.828;2023-08-12T04:00:33;52.85;;;29.35;;
74059;SDS011;62414;53.436;8.828;2023-08-12T04:03:00;57.75;;;29.00;;
74059;SDS011;62414;53.436;8.828;2023-08-12T04:05:26;51.53;;;29.17;;
74059;SDS011;62414;53.436;8.828;2023-08-12T04:07:52;53.77;;;28.90;;
74059;SDS011;62414;53.436;8.828;2023-08-12T04:10:17;52.47;;;27.87;;
74059;SDS011;62414;53.436;8.828;2023-08-12T04:12:43;55.50;;;28.13;;
74059;SDS011;62414;53.436;8.828;2023-08-12T04:15:10;59.70;;;30.83;;
74059;SDS011;62414;53.436;8.828;2023-08-12T04:17:35;57.42;;;28.98;;
74059;SDS011;62414;53.436;8.828;2023-08-12T04:20:03;59.20;;;30.23;;
74059;SDS011;62414;53.436;8.828;2023-08-12T04:22:29;54.75;;;29.60;;
74059;SDS011;62414;53.436;8.828;2023-08-12T04:24:55;57.22;;;29.50;;
74059;SDS011;62414;53.436;8.828;2023-08-12T04:27:21;54.77;;;29.47;;
74059;SDS011;62414;53.436;8.828;2023-08-12T04:29:46;58.40;;;29.73;;
74059;SDS011;62414;53.436;8.828;2023-08-12T04:32:14;58.00;;;29.00;;
74059;SDS011;62414;53.436;8.828;2023-08-12T04:34:39;56.63;;;28.83;;
74059;SDS011;62414;53.436;8.828;2023-08-12T04:37:05;55.92;;;29.48;;
74059;SDS011;62414;53.436;8.828;2023-08-12T04:39:31;60.07;;;28.90;;
74059;SDS011;62414;53.436;8.828;2023-08-12T04:41:57;56.43;;;28.73;;
74059;SDS011;62414;53.436;8.828;2023-08-12T04:44:22;60.90;;;30.40;;
74059;SDS011;62414;53.436;8.828;2023-08-12T04:46:48;60.45;;;29.33;;
74059;SDS011;62414;53.436;8.828;2023-08-12T04:49:16;60.25;;;30.60;;
74059;SDS011;62414;53.436;8.828;2023-08-12T04:51:42;59.25;;;29.58;;
74059;SDS011;62414;53.436;8.828;2023-08-12T04:54:08;58.13;;;29.53;;
74059;SDS011;62414;53.436;8.828;2023-08-12T04:56:33;62.10;;;30.95;;
74059;SDS011;62414;53.436;8.828;2023-08-12T04:58:59;57.55;;;29.23;;
74059;SDS011;62414;53.436;8.828;2023-08-12T05:01:26;56.33;;;28.63;;
74059;SDS011;62414;53.436;8.828;2023-08-12T05:03:51;50.75;;;27.73;;
74059;SDS011;62414;53.436;8.828;2023-08-12T05:06:19;53.30;;;27.50;;
74059;SDS011;62414;53.436;8.828;2023-08-12T05:08:45;56.28;;;28.42;;
74059;SDS011;62414;53.436;8.828;2023-08-12T05:11:10;49.97;;;26.02;;
74059;SDS011;62414;53.436;8.828;2023-08-12T05:13:36;48.97;;;26.27;;
74059;SDS011;62414;53.436;8.828;2023-08-12T05:16:02;46.97;;;25.17;;
74059;SDS011;62414;53.436;8.828;2023-08-12T05:18:27;47.93;;;24.90;;
74059;SDS011;62414;53.436;8.828;2023-08-12T05:20:53;48.60;;;24.70;;
74059;SDS011;62414;53.436;8.828;2023-08-12T05:25:47;42.60;;;23.35;;
74059;SDS011;62414;53.436;8.828;2023-08-12T05:28:13;43.87;;;23.13;;
74059;SDS011;62414;53.436;8.828;2023-08-12T05:30:38;42.00;;;21.80;;
74059;SDS011;62414;53.436;8.828;2023-08-12T05:33:04;42.83;;;22.57;;
74059;SDS011;62414;53.436;8.828;2023-08-12T05:35:32;39.75;;;21.20;;
74059;SDS011;62414;53.436;8.828;2023-08-12T05:37:58;42.75;;;21.92;;
74059;SDS011;62414;53.436;8.828;2023-08-12T05:40:24;42.47;;;20.70;;
74059;SDS011;62414;53.436;8.828;2023-08-12T05:42:50;37.60;;;20.85;;
74059;SDS011;62414;53.436;8.828;2023-08-12T05:45:15;35.63;;;19.97;;
74059;SDS011;62414;53.436;8.828;2023-08-12T05:47:41;36.00;;;19.58;;
74059;SDS011;62414;53.436;8.828;2023-08-12T05:50:07;39.37;;;20.60;;
74059;SDS011;62414;53.436;8.828;2023-08-12T05:52:32;36.85;;;20.33;;
74059;SDS011;62414;53.436;8.828;2023-08-12T05:54:58;38.57;;;20.87;;
74059;SDS011;62414;53.436;8.828;2023-08-12T05:57:25;36.40;;;19.90;;
74059;SDS011;62414;53.436;8.828;2023-08-12T05:59:50;35.92;;;20.33;;
74059;SDS011;62414;53.436;8.828;2023-08-12T06:02:16;34.50;;;19.02;;
74059;SDS011;62414;53.436;8.828;2023-08-12T06:04:41;37.70;;;20.40;;
74059;SDS011;62414;53.436;8.828;2023-08-12T06:07:07;39.07;;;20.93;;
74059;SDS011;62414;53.436;8.828;2023-08-12T06:09:32;36.43;;;19.77;;
74059;SDS011;62414;53.436;8.828;2023-08-12T06:11:57;37.83;;;19.67;;
74059;SDS011;62414;53.436;8.828;2023-08-12T06:14:24;35.77;;;19.83;;
74059;SDS011;62414;53.436;8.828;2023-08-12T06:16:50;37.88;;;19.85;;
74059;SDS011;62414;53.436;8.828;2023-08-12T06:19:15;33.37;;;18.97;;
74059;SDS011;62414;53.436;8.828;2023-08-12T06:21:41;35.85;;;19.02;;
74059;SDS011;62414;53.436;8.828;2023-08-12T06:24:06;33.13;;;18.10;;
74059;SDS011;62414;53.436;8.828;2023-08-12T06:26:32;36.23;;;18.20;;
74059;SDS011;62414;53.436;8.828;2023-08-12T06:28:57;34.78;;;19.02;;
74059;SDS011;62414;53.436;8.828;2023-08-12T06:31:24;31.87;;;17.70;;
74059;SDS011;62414;53.436;8.828;2023-08-12T06:33:49;30.67;;;17.45;;
74059;SDS011;62414;53.436;8.828;2023-08-12T06:36:15;30.83;;;17.60;;
74059;SDS011;62414;53.436;8.828;2023-08-12T06:38:40;30.20;;;16.67;;
74059;SDS011;62414;53.436;8.828;2023-08-12T06:41:06;33.75;;;17.80;;
74059;SDS011;62414;53.436;8.828;2023-08-12T06:43:31;33.47;;;18.53;;
74059;SDS011;62414;53.436;8.828;2023-08-12T06:45:57;30.23;;;17.27;;
74059;SDS011;62414;53.436;8.828;2023-08-12T06:48:23;28.58;;;16.38;;
74059;SDS011;62414;53.436;8.828;2023-08-12T06:50:52;26.43;;;15.30;;
74059;SDS011;62414;53.436;8.828;2023-08-12T06:53:18;26.70;;;15.35;;
74059;SDS011;62414;53.436;8.828;2023-08-12T06:55:44;26.40;;;14.90;;
74059;SDS011;62414;53.436;8.828;2023-08-12T06:58:09;24.50;;;14.47;;
74059;SDS011;62414;53.436;8.828;2023-08-12T07:00:34;25.80;;;14.20;;
74059;SDS011;62414;53.436;8.828;2023-08-12T07:03:00;24.10;;;14.30;;
74059;SDS011;62414;53.436;8.828;2023-08-12T07:05:27;24.03;;;13.23;;
74059;SDS011;62414;53.436;8.828;2023-08-12T07:07:52;25.25;;;14.02;;
74059;SDS011;62414;53.436;8.828;2023-08-12T07:10:17;24.73;;;14.00;;
74059;SDS011;62414;53.436;8.828;2023-08-12T07:12:43;23.03;;;12.57;;
74059;SDS011;62414;53.436;8.828;2023-08-12T07:15:08;19.38;;;11.27;;
74059;SDS011;62414;53.436;8.828;2023-08-12T07:17:34;21.47;;;12.53;;
74059;SDS011;62414;53.436;8.828;2023-08-12T07:20:00;21.87;;;11.93;;
74059;SDS011;62414;53.436;8.828;2023-08-12T07:22:26;19.58;;;11.52;;
74059;SDS011;62414;53.436;8.828;2023-08-12T07:24:52;19.98;;;11.10;;
74059;SDS011;62414;53.436;8.828;2023-08-12T07:27:17;18.67;;;10.93;;
74059;SDS011;62414;53.436;8.828;2023-08-12T07:29:43;18.93;;;11.20;;
74059;SDS011;62414;53.436;8.828;2023-08-12T07:32:08;17.93;;;10.37;;
74059;SDS011;62414;53.436;8.828;2023-08-12T07:34:33;18.38;;;10.50;;
74059;SDS011;62414;53.436;8.828;2023-08-12T07:36:59;17.67;;;10.87;;
74059;SDS011;62414;53.436;8.828;2023-08-12T07:39:26;17.47;;;10.43;;
74059;SDS011;62414;53.436;8.828;2023-08-12T07:41:51;16.92;;;10.18;;
74059;SDS011;62414;53.436;8.828;2023-08-12T07:44:17;16.27;;;9.10;;
74059;SDS011;62414;53.436;8.828;2023-08-12T07:46:42;14.93;;;8.55;;
74059;SDS011;62414;53.436;8.828;2023-08-12T07:49:07;12.63;;;7.77;;
74059;SDS011;62414;53.436;8.828;2023-08-12T07:51:33;11.77;;;7.50;;
74059;SDS011;62414;53.436;8.828;2023-08-12T07:53:58;16.10;;;8.53;;
74059;SDS011;62414;53.436;8.828;2023-08-12T07:56:25;16.03;;;8.37;;
74059;SDS011;62414;53.436;8.828;2023-08-12T07:58:51;15.35;;;9.30;;
74059;SDS011;62414;53.436;8.828;2023-08-12T08:01:16;14.77;;;8.80;;
74059;SDS011;62414;53.436;8.828;2023-08-12T08:03:41;16.23;;;8.67;;
74059;SDS011;62414;53.436;8.828;2023-08-12T08:06:07;14.57;;;8.60;;
74059;SDS011;62414;53.436;8.828;2023-08-12T08:08:32;17.70;;;8.97;;
74059;SDS011;62414;53.436;8.828;2023-08-12T08:10:58;14.33;;;7.97;;
74059;SDS011;62414;53.436;8.828;2023-08-12T08:13:25;13.37;;;7.33;;
74059;SDS011;62414;53.436;8.828;2023-08-12T08:15:50;14.90;;;7.47;;
74059;SDS011;62414;53.436;8.828;2023-08-12T08:18:15;13.00;;;7.07;;
74059;SDS011;62414;53.436;8.828;2023-08-12T08:20:41;12.50;;;6.87;;
74059;SDS011;62414;53.436;8.828;2023-08-12T08:23:07;15.10;;;8.35;;
74059;SDS011;62414;53.436;8.828;2023-08-12T08:25:32;12.90;;;7.50;;
74059;SDS011;62414;53.436;8.828;2023-08-12T08:27:58;14.50;;;7.77;;
74059;SDS011;62414;53.436;8.828;2023-08-12T08:30:24;13.57;;;7.40;;
74059;SDS011;62414;53.436;8.828;2023-08-12T08:32:50;14.55;;;7.22;;
74059;SDS011;62414;53.436;8.828;2023-08-12T08:35:15;12.90;;;7.20;;
74059;SDS011;62414;53.436;8.828;2023-08-12T08:37:41;15.03;;;8.07;;
74059;SDS011;62414;53.436;8.828;2023-08-12T08:40:07;13.63;;;8.07;;
74059;SDS011;62414;53.436;8.828;2023-08-12T08:42:33;14.87;;;8.53;;
74059;SDS011;62414;53.436;8.828;2023-08-12T08:45:00;13.95;;;8.15;;
74059;SDS011;62414;53.436;8.828;2023-08-12T08:47:27;15.68;;;8.23;;
74059;SDS011;62414;53.436;8.828;2023-08-12T08:49:53;15.93;;;8.57;;
74059;SDS011;62414;53.436;8.828;2023-08-12T08:52:20;14.70;;;9.00;;
74059;SDS011;62414;53.436;8.828;2023-08-12T08:54:45;13.48;;;8.70;;
74059;SDS011;62414;53.436;8.828;2023-08-12T08:57:11;13.43;;;8.63;;
74059;SDS011;62414;53.436;8.828;2023-08-12T08:59:36;17.92;;;10.40;;
74059;SDS011;62414;53.436;8.828;2023-08-12T09:02:02;17.67;;;10.40;;
74059;SDS011;62414;53.436;8.828;2023-08-12T09:04:29;18.85;;;10.43;;
74059;SDS011;62414;53.436;8.828;2023-08-12T09:06:55;19.77;;;10.23;;
74059;SDS011;62414;53.436;8.828;2023-08-12T09:09:20;19.60;;;10.50;;
74059;SDS011;62414;53.436;8.828;2023-08-12T09:11:47;14.63;;;9.60;;
74059;SDS011;62414;53.436;8.828;2023-08-12T09:14:13;15.33;;;9.47;;
74059;SDS011;62414;53.436;8.828;2023-08-12T09:16:38;16.08;;;9.52;;
74059;SDS011;62414;53.436;8.828;2023-08-12T09:19:04;92.20;;;14.33;;
74059;SDS011;62414;53.436;8.828;2023-08-12T09:21:30;17.00;;;9.93;;
74059;SDS011;62414;53.436;8.828;2023-08-12T09:23:56;17.50;;;10.95;;
74059;SDS011;62414;53.436;8.828;2023-08-12T09:26:21;18.17;;;11.00;;
74059;SDS011;62414;53.436;8.828;2023-08-12T09:28:47;19.43;;;11.90;;
74059;SDS011;62414;53.436;8.828;2023-08-12T09:31:21;19.90;;;11.82;;
74059;SDS011;62414;53.436;8.828;2023-08-12T09:33:47;21.17;;;12.27;;
74059;SDS011;62414;53.436;8.828;2023-08-12T09:36:12;20.15;;;12.90;;
74059;SDS011;62414;53.436;8.828;2023-08-12T09:38:39;21.47;;;12.70;;
74059;SDS011;62414;53.436;8.828;2023-08-12T09:41:05;22.10;;;13.32;;
74059;SDS011;62414;53.436;8.828;2023-08-12T09:43:31;22.67;;;15.27;;
74059;SDS011;62414;53.436;8.828;2023-08-12T09:45:57;24.58;;;15.55;;
74059;SDS011;62414;53.436;8.828;2023-08-12T09:48:22;25.88;;;15.95;;
74059;SDS011;62414;53.436;8.828;2023-08-12T09:50:48;26.90;;;15.93;;
74059;SDS011;62414;53.436;8.828;2023-08-12T09:53:14;25.42;;;15.70;;
74059;SDS011;62414;53.436;8.828;2023-08-12T09:55:41;20.43;;;13.20;;
74059;SDS011;62414;53.436;8.828;2023-08-12T09:58:09;20.48;;;13.05;;
74059;SDS011;62414;53.436;8.828;2023-08-12T10:00:35;16.95;;;10.40;;
74059;SDS011;62414;53.436;8.828;2023-08-12T10:03:00;14.80;;;9.80;;
74059;SDS011;62414;53.436;8.828;2023-08-12T10:05:27;17.07;;;11.40;;
74059;SDS011;62414;53.436;8.828;2023-08-12T10:07:53;15.55;;;10.45;;
74059;SDS011;62414;53.436;8.828;2023-08-12T10:10:19;15.47;;;9.27;;
74059;SDS011;62414;53.436;8.828;2023-08-12T10:12:47;16.60;;;9.85;;
74059;SDS011;62414;53.436;8.828;2023-08-12T10:15:12;16.58;;;9.75;;
74059;SDS011;62414;53.436;8.828;2023-08-12T10:17:38;15.77;;;10.00;;
74059;SDS011;62414;53.436;8.828;2023-08-12T10:20:05;19.42;;;10.38;;
74059;SDS011;62414;53.436;8.828;2023-08-12T10:22:31;14.82;;;10.30;;
74059;SDS011;62414;53.436;8.828;2023-08-12T10:24:58;15.70;;;10.85;;
74059;SDS011;62414;53.436;8.828;2023-08-12T10:27:24;17.13;;;11.17;;
74059;SDS011;62414;53.436;8.828;2023-08-12T10:29:51;19.90;;;11.27;;
74059;SDS011;62414;53.436;8.828;2023-08-12T10:32:17;17.10;;;11.30;;
74059;SDS011;62414;53.436;8.828;2023-08-12T10:34:43;18.90;;;11.47;;
74059;SDS011;62414;53.436;8.828;2023-08-12T10:37:09;23.60;;;13.07;;
74059;SDS011;62414;53.436;8.828;2023-08-12T10:39:35;27.98;;;13.65;;
74059;SDS011;62414;53.436;8.828;2023-08-12T10:42:01;23.73;;;13.60;;
74059;SDS011;62414;53.436;8.828;2023-08-12T10:44:26;23.27;;;13.37;;
74059;SDS011;62414;53.436;8.828;2023-08-12T10:46:54;23.77;;;14.32;;
74059;SDS011;62414;53.436;8.828;2023-08-12T10:49:19;25.30;;;14.07;;
74059;SDS011;62414;53.436;8.828;2023-08-12T10:51:46;25.25;;;14.60;;
74059;SDS011;62414;53.436;8.828;2023-08-12T10:54:16;27.90;;;14.65;;
74059;SDS011;62414;53.436;8.828;2023-08-12T11:02:19;28.23;;;15.25;;
74059;SDS011;62414;53.436;8.828;2023-08-12T11:04:48;28.63;;;15.30;;
74059;SDS011;62414;53.436;8.828;2023-08-12T11:07:14;24.95;;;14.50;;
74059;SDS011;62414;53.436;8.828;2023-08-12T11:09:40;28.37;;;15.40;;
74059;SDS011;62414;53.436;8.828;2023-08-12T11:12:06;28.25;;;14.93;;
74059;SDS011;62414;53.436;8.828;2023-08-12T11:14:31;25.93;;;14.37;;
74059;SDS011;62414;53.436;8.828;2023-08-12T11:16:57;27.50;;;14.53;;
74059;SDS011;62414;53.436;8.828;2023-08-12T11:19:23;30.15;;;15.98;;
74059;SDS011;62414;53.436;8.828;2023-08-12T11:21:49;34.00;;;16.33;;
74059;SDS011;62414;53.436;8.828;2023-08-12T11:24:16;28.77;;;15.60;;
74059;SDS011;62414;53.436;8.828;2023-08-12T11:26:42;33.35;;;16.48;;
74059;SDS011;62414;53.436;8.828;2023-08-12T11:29:09;27.55;;;15.02;;
74059;SDS011;62414;53.436;8.828;2023-08-12T11:31:35;23.42;;;13.95;;
74059;SDS011;62414;53.436;8.828;2023-08-12T11:34:01;22.23;;;13.70;;
74059;SDS011;62414;53.436;8.828;2023-08-12T11:36:29;22.80;;;14.37;;
74059;SDS011;62414;53.436;8.828;2023-08-12T11:38:55;24.90;;;14.90;;
74059;SDS011;62414;53.436;8.828;2023-08-12T11:41:22;26.00;;;15.15;;
74059;SDS011;62414;53.436;8.828;2023-08-12T11:43:47;26.80;;;15.15;;
74059;SDS011;62414;53.436;8.828;2023-08-12T11:46:15;27.77;;;16.53;;
74059;SDS011;62414;53.436;8.828;2023-08-12T11:48:40;28.88;;;16.55;;
74059;SDS011;62414;53.436;8.828;2023-08-12T11:51:08;29.38;;;17.00;;
74059;SDS011;62414;53.436;8.828;2023-08-12T11:53:35;30.87;;;18.53;;
74059;SDS011;62414;53.436;8.828;2023-08-12T11:56:00;33.85;;;19.35;;
74059;SDS011;62414;53.436;8.828;2023-08-12T11:58:26;35.03;;;20.30;;
74059;SDS011;62414;53.436;8.828;2023-08-12T12:00:51;32.83;;;19.85;;
74059;SDS011;62414;53.436;8.828;2023-08-12T12:03:17;31.37;;;19.87;;
74059;SDS011;62414;53.436;8.828;2023-08-12T12:05:42;32.60;;;20.53;;
74059;SDS011;62414;53.436;8.828;2023-08-12T12:08:11;31.45;;;19.58;;
74059;SDS011;62414;53.436;8.828;2023-08-12T12:10:38;32.47;;;19.70;;
74059;SDS011;62414;53.436;8.828;2023-08-12T12:13:03;33.20;;;20.05;;
74059;SDS011;62414;53.436;8.828;2023-08-12T12:15:29;32.35;;;19.67;;
74059;SDS011;62414;53.436;8.828;2023-08-12T12:17:55;32.97;;;20.55;;
74059;SDS011;62414;53.436;8.828;2023-08-12T12:20:21;35.93;;;21.17;;
74059;SDS011;62414;53.436;8.828;2023-08-12T12:22:46;36.80;;;21.90;;
74059;SDS011;62414;53.436;8.828;2023-08-12T12:25:13;34.15;;;21.70;;
74059;SDS011;62414;53.436;8.828;2023-08-12T12:27:41;36.38;;;22.42;;
74059;SDS011;62414;53.436;8.828;2023-08-12T12:30:07;37.92;;;22.85;;
74059;SDS011;62414;53.436;8.828;2023-08-12T12:32:33;33.97;;;22.38;;
74059;SDS011;62414;53.436;8.828;2023-08-12T12:34:59;33.67;;;21.00;;
74059;SDS011;62414;53.436;8.828;2023-08-12T12:37:24;32.60;;;19.87;;
74059;SDS011;62414;53.436;8.828;2023-08-12T12:39:49;30.77;;;19.77;;
74059;SDS011;62414;53.436;8.828;2023-08-12T12:42:15;32.27;;;19.80;;
74059;SDS011;62414;53.436;8.828;2023-08-12T12:44:42;30.87;;;18.23;;
74059;SDS011;62414;53.436;8.828;2023-08-12T12:47:07;28.90;;;18.73;;
74059;SDS011;62414;53.436;8.828;2023-08-12T12:49:32;27.20;;;18.17;;
74059;SDS011;62414;53.436;8.828;2023-08-12T12:51:58;28.27;;;18.20;;
74059;SDS011;62414;53.436;8.828;2023-08-12T12:54:23;27.13;;;18.07;;
74059;SDS011;62414;53.436;8.828;2023-08-12T12:56:49;28.97;;;18.77;;
74059;SDS011;62414;53.436;8.828;2023-08-12T12:59:14;30.30;;;18.55;;
74059;SDS011;62414;53.436;8.828;2023-08-12T13:01:41;30.00;;;18.83;;
74059;SDS011;62414;53.436;8.828;2023-08-12T13:04:07;30.48;;;18.80;;
74059;SDS011;62414;53.436;8.828;2023-08-12T13:06:32;31.93;;;19.20;;
74059;SDS011;62414;53.436;8.828;2023-08-12T13:08:57;29.13;;;17.83;;
74059;SDS011;62414;53.436;8.828;2023-08-12T13:11:23;26.37;;;17.23;;
74059;SDS011;62414;53.436;8.828;2023-08-12T13:13:48;25.25;;;17.05;;
74059;SDS011;62414;53.436;8.828;2023-08-12T13:16:14;27.13;;;17.17;;
74059;SDS011;62414;53.436;8.828;2023-08-12T13:18:40;28.20;;;18.73;;
74059;SDS011;62414;53.436;8.828;2023-08-12T13:21:06;24.65;;;16.63;;
74059;SDS011;62414;53.436;8.828;2023-08-12T13:23:31;26.63;;;17.20;;
74059;SDS011;62414;53.436;8.828;2023-08-12T13:25:57;24.40;;;16.73;;
74059;SDS011;62414;53.436;8.828;2023-08-12T13:28:22;22.80;;;15.20;;
74059;SDS011;62414;53.436;8.828;2023-08-12T13:30:47;23.47;;;15.33;;
74059;SDS011;62414;53.436;8.828;2023-08-12T13:33:13;22.63;;;13.93;;
74059;SDS011;62414;53.436;8.828;2023-08-12T13:35:40;20.55;;;13.70;;
74059;SDS011;62414;53.436;8.828;2023-08-12T13:38:05;20.47;;;13.03;;
74059;SDS011;62414;53.436;8.828;2023-08-12T13:40:30;16.70;;;11.70;;
74059;SDS011;62414;53.436;8.828;2023-08-12T13:42:56;19.27;;;13.20;;
74059;SDS011;62414;53.436;8.828;2023-08-12T13:45:21;18.10;;;13.17;;
74059;SDS011;62414;53.436;8.828;2023-08-12T13:47:47;17.95;;;13.15;;
74059;SDS011;62414;53.436;8.828;2023-08-12T13:50:12;18.17;;;12.77;;
74059;SDS011;62414;53.436;8.828;2023-08-12T13:52:39;19.00;;;12.77;;
74059;SDS011;62414;53.436;8.828;2023-08-12T13:55:05;17.85;;;12.57;;
74059;SDS011;62414;53.436;8.828;2023-08-12T13:57:31;17.20;;;12.02;;
74059;SDS011;62414;53.436;8.828;2023-08-12T13:59:57;17.80;;;12.57;;
74059;SDS011;62414;53.436;8.828;2023-08-12T14:02:22;19.35;;;12.95;;
74059;SDS011;62414;53.436;8.828;2023-08-12T14:04:48;20.00;;;13.60;;
74059;SDS011;62414;53.436;8.828;2023-08-12T14:07:13;20.50;;;14.03;;
74059;SDS011;62414;53.436;8.828;2023-08-12T14:09:40;20.93;;;14.40;;
74059;SDS011;62414;53.436;8.828;2023-08-12T14:12:06;21.93;;;14.10;;
74059;SDS011;62414;53.436;8.828;2023-08-12T14:14:32;21.58;;;14.57;;
74059;SDS011;62414;53.436;8.828;2023-08-12T14:16:57;23.40;;;14.97;;
74059;SDS011;62414;53.436;8.828;2023-08-12T14:19:23;22.77;;;14.53;;
74059;SDS011;62414;53.436;8.828;2023-08-12T14:21:48;24.95;;;16.10;;
74059;SDS011;62414;53.436;8.828;2023-08-12T14:24:13;23.30;;;16.60;;